Time;durP1;ratioP1;P1;durP2;ratioP2;P2;SDS_P1;SDS_P2;PMS_P1;PMS_P2;Temp;Humidity;BMP_temperature;BMP_pressure;BME280_temperature;BME280_humidity;BME280_pressure;Samples;Min_cycle;Max_cycle;Signal;HPM_P1;HPM_P2
2021/06/24 00:01:17;;;;;;;5.13;4.70;;;17.60;99.90;;;;;;5094093;28;20203;-62
2021/06/24 00:03:45;;;;;;;5.57;4.72;;;17.60;99.90;;;;;;5094280;28;20196;-61
2021/06/24 00:06:13;;;;;;;5.70;4.43;;;17.50;99.90;;;;;;5094557;28;20560;-62
2021/06/24 00:08:41;;;;;;;7.15;4.30;;;17.60;99.90;;;;;;5094274;28;20286;-62
2021/06/24 00:11:09;;;;;;;4.82;4.32;;;17.70;99.90;;;;;;5094318;28;20222;-61
2021/06/24 00:13:38;;;;;;;7.43;4.32;;;17.70;99.90;;;;;;5093506;28;20227;-63
2021/06/24 00:16:07;;;;;;;4.90;4.40;;;17.70;99.90;;;;;;5093788;28;20770;-63
2021/06/24 00:18:37;;;;;;;6.00;4.65;;;17.50;99.90;;;;;;5094405;28;20200;-61
2021/06/24 00:21:06;;;;;;;5.85;4.53;;;17.40;99.90;;;;;;5094116;28;20196;-61
2021/06/24 00:23:35;;;;;;;4.50;4.10;;;17.40;99.90;;;;;;5094396;28;20296;-62
2021/06/24 00:26:03;;;;;;;6.10;4.75;;;17.40;99.90;;;;;;5093835;28;20653;-61
2021/06/24 00:28:30;;;;;;;4.90;4.50;;;17.40;99.90;;;;;;5093787;28;20204;-62
2021/06/24 00:30:59;;;;;;;5.25;4.55;;;17.30;99.90;;;;;;5093424;28;20220;-61
2021/06/24 00:33:27;;;;;;;4.63;4.22;;;17.30;99.90;;;;;;5093726;28;20638;-62
2021/06/24 00:35:57;;;;;;;5.13;4.65;;;17.40;99.90;;;;;;5093453;28;20664;-62
2021/06/24 00:38:25;;;;;;;5.38;4.28;;;17.40;99.90;;;;;;5093612;28;20623;-61
2021/06/24 00:40:53;;;;;;;6.25;4.85;;;17.40;99.90;;;;;;5093798;28;20249;-63
2021/06/24 00:43:22;;;;;;;5.18;4.68;;;17.50;99.90;;;;;;5093807;28;20202;-61
2021/06/24 00:45:50;;;;;;;7.53;6.65;;;17.50;99.90;;;;;;5093378;28;20199;-62
2021/06/24 00:48:18;;;;;;;6.97;4.95;;;17.50;99.90;;;;;;5093327;28;20229;-62
2021/06/24 00:50:47;;;;;;;5.75;4.63;;;17.60;99.90;;;;;;5093337;28;20232;-62
2021/06/24 00:53:17;;;;;;;5.30;4.80;;;17.60;99.90;;;;;;5093642;28;20214;-61
2021/06/24 00:55:46;;;;;;;5.35;4.18;;;17.50;99.90;;;;;;5093616;28;20197;-63
2021/06/24 00:58:19;;;;;;;8.13;4.75;;;17.40;99.90;;;;;;5093604;28;20288;-62
2021/06/24 01:00:49;;;;;;;7.63;4.75;;;17.40;99.90;;;;;;5093288;28;20206;-62
2021/06/24 01:03:18;;;;;;;5.10;4.35;;;17.20;99.90;;;;;;5093806;28;20188;-62
2021/06/24 01:05:46;;;;;;;5.10;4.70;;;17.20;99.90;;;;;;5093538;28;20204;-62
2021/06/24 01:08:16;;;;;;;4.60;4.20;;;17.10;99.90;;;;;;5093409;28;20286;-63
2021/06/24 01:10:45;;;;;;;4.97;4.43;;;17.00;99.90;;;;;;5092995;28;20305;-62
2021/06/24 01:13:14;;;;;;;4.95;4.45;;;17.00;99.90;;;;;;5093249;28;20196;-62
2021/06/24 01:15:43;;;;;;;4.60;4.20;;;17.10;99.90;;;;;;5093047;28;20201;-62
2021/06/24 01:18:11;;;;;;;5.15;4.20;;;17.10;99.90;;;;;;5093265;28;20204;-61
2021/06/24 01:20:39;;;;;;;5.35;3.85;;;17.10;99.90;;;;;;5093067;28;20296;-62
2021/06/24 01:23:08;;;;;;;5.10;4.10;;;17.20;99.90;;;;;;5093181;28;20224;-61
2021/06/24 01:25:37;;;;;;;4.53;4.13;;;17.10;99.90;;;;;;5092860;28;20202;-62
2021/06/24 01:28:07;;;;;;;4.70;4.30;;;17.10;99.90;;;;;;5093246;28;20247;-63
2021/06/24 01:30:36;;;;;;;4.85;4.35;;;17.20;99.90;;;;;;5092400;28;20282;-61
2021/06/24 01:33:06;;;;;;;5.20;4.70;;;17.20;99.90;;;;;;5092731;28;20687;-61
2021/06/24 01:35:35;;;;;;;5.15;4.53;;;17.10;99.90;;;;;;5093182;28;20298;-60
2021/06/24 01:38:05;;;;;;;5.30;4.90;;;17.20;99.90;;;;;;5092951;28;20202;-59
2021/06/24 01:40:33;;;;;;;5.97;5.38;;;17.20;99.90;;;;;;5092532;28;20727;-59
2021/06/24 01:43:03;;;;;;;5.60;5.03;;;17.20;99.90;;;;;;5092756;28;20307;-60
2021/06/24 01:45:31;;;;;;;6.80;5.18;;;17.30;99.90;;;;;;5092561;28;20196;-60
2021/06/24 01:47:59;;;;;;;5.15;4.25;;;17.20;99.90;;;;;;5092716;28;20197;-60
2021/06/24 01:50:27;;;;;;;5.97;5.30;;;17.20;99.90;;;;;;5092478;28;20230;-60
2021/06/24 01:52:55;;;;;;;5.70;5.10;;;17.20;99.90;;;;;;5092529;28;20706;-59
2021/06/24 01:55:32;;;;;;;6.57;4.85;;;17.10;99.90;;;;;;5092606;28;20221;-60
2021/06/24 01:58:02;;;;;;;5.25;4.75;;;17.10;99.90;;;;;;5092814;28;20215;-60
2021/06/24 02:00:30;;;;;;;5.57;5.03;;;17.20;99.90;;;;;;5092122;28;20546;-60
2021/06/24 02:02:59;;;;;;;8.13;4.88;;;17.10;99.90;;;;;;5092726;28;20281;-60
2021/06/24 02:05:27;;;;;;;6.28;5.57;;;17.10;99.90;;;;;;5092393;28;20219;-59
2021/06/24 02:07:55;;;;;;;5.80;5.07;;;17.10;99.90;;;;;;5092542;28;20303;-60
2021/06/24 02:10:23;;;;;;;6.07;5.20;;;17.10;99.90;;;;;;5092631;28;20202;-59
2021/06/24 02:12:52;;;;;;;6.20;5.18;;;17.00;99.90;;;;;;5092542;28;20264;-61
2021/06/24 02:15:21;;;;;;;5.93;5.32;;;16.90;99.90;;;;;;5092322;28;20200;-60
2021/06/24 02:17:49;;;;;;;6.30;5.40;;;16.80;99.90;;;;;;5092278;28;20415;-59
2021/06/24 02:20:17;;;;;;;5.38;4.88;;;16.80;99.90;;;;;;5092625;28;20205;-59
2021/06/24 02:22:46;;;;;;;5.05;4.65;;;16.70;99.90;;;;;;5092231;28;20200;-60
2021/06/24 02:25:15;;;;;;;5.50;4.95;;;16.80;99.90;;;;;;5092515;28;20206;-59
2021/06/24 02:27:44;;;;;;;6.93;5.13;;;17.00;99.90;;;;;;5092424;28;20194;-60
2021/06/24 02:30:14;;;;;;;5.55;4.90;;;17.00;99.90;;;;;;5092196;28;20201;-60
2021/06/24 02:32:44;;;;;;;6.15;4.60;;;17.10;99.90;;;;;;5092437;28;20642;-60
2021/06/24 02:35:14;;;;;;;7.03;5.20;;;17.10;99.90;;;;;;5092416;28;20287;-61
2021/06/24 02:37:44;;;;;;;5.80;5.20;;;17.10;99.90;;;;;;5096173;28;20290;-60
2021/06/24 02:40:14;;;;;;;5.53;4.97;;;17.10;99.90;;;;;;5095921;28;20661;-60
2021/06/24 02:42:43;;;;;;;5.25;4.53;;;17.10;99.90;;;;;;5096133;28;20298;-60
2021/06/24 02:45:12;;;;;;;5.43;4.82;;;17.10;99.90;;;;;;5095514;28;20244;-59
2021/06/24 02:47:40;;;;;;;6.40;5.05;;;17.10;99.90;;;;;;5095939;28;20204;-61
2021/06/24 02:50:12;;;;;;;6.18;5.20;;;17.10;99.90;;;;;;5095619;28;20232;-60
2021/06/24 02:52:40;;;;;;;6.63;5.07;;;17.10;99.90;;;;;;5095565;28;20352;-59
2021/06/24 02:55:09;;;;;;;5.15;4.63;;;16.90;99.90;;;;;;5095922;28;20204;-59
2021/06/24 02:57:37;;;;;;;5.63;5.10;;;16.90;99.90;;;;;;5095874;28;20200;-59
2021/06/24 03:00:06;;;;;;;6.22;4.90;;;16.80;99.90;;;;;;5095560;28;20249;-60
2021/06/24 03:02:34;;;;;;;5.32;4.80;;;16.70;99.90;;;;;;5095737;28;20278;-59
2021/06/24 03:05:02;;;;;;;6.03;5.30;;;16.70;99.90;;;;;;5095797;28;20286;-59
2021/06/24 03:07:32;;;;;;;6.97;4.82;;;16.80;99.90;;;;;;5095716;28;20200;-60
2021/06/24 03:10:00;;;;;;;6.10;5.10;;;16.70;99.90;;;;;;5095745;28;20203;-60
2021/06/24 03:12:28;;;;;;;6.22;4.85;;;16.80;99.90;;;;;;5095604;28;20264;-61
2021/06/24 03:14:56;;;;;;;6.13;5.40;;;16.80;99.90;;;;;;5095300;28;20200;-61
2021/06/24 03:17:24;;;;;;;5.63;5.10;;;16.80;99.90;;;;;;5095557;28;20200;-59
2021/06/24 03:19:51;;;;;;;6.05;5.47;;;16.80;99.90;;;;;;5095485;28;20204;-60
2021/06/24 03:22:19;;;;;;;6.05;5.43;;;16.80;99.90;;;;;;5095447;28;20204;-59
2021/06/24 03:24:48;;;;;;;8.85;5.47;;;16.80;99.90;;;;;;5095003;28;20682;-60
2021/06/24 03:27:16;;;;;;;6.07;5.07;;;16.80;99.90;;;;;;5095364;28;20193;-60
2021/06/24 03:29:44;;;;;;;6.07;5.43;;;16.70;99.90;;;;;;5094875;28;20243;-60
2021/06/24 03:32:12;;;;;;;6.05;5.47;;;16.80;99.90;;;;;;5095111;28;20220;-59
2021/06/24 03:34:40;;;;;;;6.63;5.30;;;16.90;99.90;;;;;;5094990;28;20236;-60
2021/06/24 03:37:08;;;;;;;7.07;5.60;;;17.00;99.90;;;;;;5094865;28;20205;-60
2021/06/24 03:39:36;;;;;;;8.23;5.88;;;16.90;99.90;;;;;;5094775;28;20296;-60
2021/06/24 03:42:05;;;;;;;8.00;6.22;;;17.00;99.90;;;;;;5095119;28;20206;-60
2021/06/24 03:44:33;;;;;;;6.35;5.53;;;17.00;99.90;;;;;;5094896;28;20325;-60
2021/06/24 03:47:01;;;;;;;6.20;5.60;;;16.90;99.90;;;;;;5094764;28;20295;-60
2021/06/24 03:49:29;;;;;;;8.00;5.47;;;16.90;99.90;;;;;;5094471;28;20782;-60
2021/06/24 03:51:57;;;;;;;6.60;5.20;;;16.90;99.90;;;;;;5094843;28;20261;-60
2021/06/24 03:54:25;;;;;;;8.75;5.55;;;16.90;99.90;;;;;;5094865;28;20296;-60
2021/06/24 03:56:52;;;;;;;5.97;5.38;;;16.90;99.90;;;;;;5094724;28;20208;-60
2021/06/24 03:59:21;;;;;;;6.88;5.45;;;16.90;99.90;;;;;;5094579;28;20203;-60
2021/06/24 04:01:49;;;;;;;6.40;5.55;;;16.90;99.90;;;;;;5094318;28;20212;-60
2021/06/24 04:04:17;;;;;;;5.95;5.15;;;16.90;99.90;;;;;;5091324;28;20196;-59
2021/06/24 04:06:45;;;;;;;5.97;5.38;;;16.90;99.90;;;;;;5094632;28;20196;-60
2021/06/24 04:09:14;;;;;;;6.20;5.22;;;17.00;99.90;;;;;;5094349;28;20200;-60
2021/06/24 04:11:42;;;;;;;6.05;5.32;;;17.00;99.90;;;;;;5094187;28;20199;-61
2021/06/24 04:14:10;;;;;;;6.65;5.22;;;17.00;99.90;;;;;;5090942;28;20212;-60
2021/06/24 04:16:39;;;;;;;8.15;5.35;;;17.10;99.90;;;;;;5073888;28;20287;-60
2021/06/24 04:19:10;;;;;;;5.78;5.28;;;17.10;99.90;;;;;;5073979;28;20254;-61
2021/06/24 04:21:38;;;;;;;6.43;5.50;;;17.10;99.90;;;;;;5073901;28;20185;-60
2021/06/24 04:24:06;;;;;;;8.80;5.72;;;17.10;99.90;;;;;;5073838;28;20299;-60
2021/06/24 04:26:33;;;;;;;6.40;5.47;;;17.20;99.90;;;;;;5073601;28;20288;-60
2021/06/24 04:29:01;;;;;;;6.03;5.38;;;17.20;99.90;;;;;;5073674;28;20247;-59
2021/06/24 04:31:29;;;;;;;6.30;5.45;;;17.30;99.90;;;;;;5073681;28;20288;-60
2021/06/24 04:33:58;;;;;;;6.32;5.50;;;17.20;99.90;;;;;;5081556;28;20573;-60
2021/06/24 04:36:26;;;;;;;7.43;6.18;;;17.10;99.90;;;;;;5083504;28;20679;-61
2021/06/24 04:38:54;;;;;;;7.25;6.35;;;17.10;99.90;;;;;;5090681;28;20652;-61
2021/06/24 04:41:22;;;;;;;7.05;6.15;;;17.00;99.90;;;;;;5093786;28;20239;-60
2021/06/24 04:43:50;;;;;;;6.45;5.70;;;17.00;99.90;;;;;;5093859;28;20200;-63
2021/06/24 04:46:18;;;;;;;7.65;5.80;;;17.00;99.90;;;;;;5093154;28;20670;-62
2021/06/24 04:48:45;;;;;;;6.45;5.80;;;17.00;99.90;;;;;;5093179;28;20323;-62
2021/06/24 04:51:15;;;;;;;8.02;5.95;;;17.10;99.90;;;;;;5093353;28;20657;-62
2021/06/24 04:53:42;;;;;;;5.43;4.90;;;17.10;99.90;;;;;;5093451;28;20260;-62
2021/06/24 04:56:10;;;;;;;5.88;5.38;;;17.20;99.90;;;;;;5093273;28;20200;-62
2021/06/24 04:58:38;;;;;;;6.65;4.97;;;17.20;99.90;;;;;;5092691;28;20208;-62
2021/06/24 05:01:06;;;;;;;8.60;5.65;;;17.20;99.90;;;;;;5092943;28;20211;-63
2021/06/24 05:03:34;;;;;;;6.00;5.38;;;17.20;99.90;;;;;;5093358;28;20295;-62
2021/06/24 05:06:04;;;;;;;7.30;5.57;;;17.20;99.90;;;;;;5093150;28;20231;-62
2021/06/24 05:08:35;;;;;;;6.38;5.40;;;17.20;99.90;;;;;;5093365;28;20188;-61
2021/06/24 05:11:03;;;;;;;6.25;5.10;;;17.20;99.90;;;;;;5093390;28;20181;-62
2021/06/24 05:13:31;;;;;;;8.40;5.53;;;17.20;99.90;;;;;;5093132;28;20216;-62
2021/06/24 05:15:59;;;;;;;6.45;5.45;;;17.20;99.90;;;;;;5092617;28;20199;-63
2021/06/24 05:18:27;;;;;;;7.80;5.60;;;17.30;99.90;;;;;;5092942;28;20196;-62
2021/06/24 05:20:55;;;;;;;7.15;5.85;;;17.20;99.90;;;;;;5092752;28;20676;-62
2021/06/24 05:23:23;;;;;;;10.13;5.82;;;17.20;99.90;;;;;;5092975;28;20702;-62
2021/06/24 05:25:52;;;;;;;8.40;5.40;;;17.20;99.90;;;;;;5093028;28;20196;-62
2021/06/24 05:28:20;;;;;;;6.88;5.85;;;17.20;99.90;;;;;;5092474;28;20295;-63
2021/06/24 05:30:48;;;;;;;8.48;6.05;;;17.20;99.90;;;;;;5092426;28;20203;-61
2021/06/24 05:33:17;;;;;;;6.68;5.68;;;17.10;99.90;;;;;;5092649;28;20224;-62
2021/06/24 05:35:47;;;;;;;7.05;5.95;;;17.10;99.90;;;;;;5092615;28;20538;-61
2021/06/24 05:38:16;;;;;;;7.05;5.68;;;17.10;99.90;;;;;;5092582;28;20727;-62
2021/06/24 05:40:44;;;;;;;6.40;5.50;;;17.10;99.90;;;;;;5092624;28;20207;-64
2021/06/24 05:43:15;;;;;;;8.10;5.90;;;17.20;99.90;;;;;;5092572;28;20775;-62
2021/06/24 05:45:42;;;;;;;7.38;6.68;;;17.30;99.90;;;;;;5092126;28;20706;-62
2021/06/24 05:48:10;;;;;;;9.30;7.03;;;17.10;99.90;;;;;;5092760;28;20291;-62
2021/06/24 05:50:40;;;;;;;9.93;7.00;;;17.10;99.90;;;;;;5092322;28;20223;-62
2021/06/24 05:53:08;;;;;;;8.77;6.45;;;17.10;99.90;;;;;;5092555;28;20264;-62
2021/06/24 05:55:51;;;;;;;7.50;6.43;;;17.20;99.90;;;;;;5092375;28;20708;-62
2021/06/24 05:58:22;;;;;;;7.40;6.60;;;17.30;99.90;;;;;;5092731;28;20550;-62
2021/06/24 06:00:52;;;;;;;7.90;7.05;;;17.20;99.90;;;;;;5092095;28;20189;-62
2021/06/24 06:03:20;;;;;;;11.75;7.70;;;17.20;99.90;;;;;;5092670;28;20192;-62
2021/06/24 06:05:49;;;;;;;10.25;7.95;;;17.20;99.90;;;;;;5092703;28;20201;-62
2021/06/24 06:08:17;;;;;;;9.68;7.93;;;17.00;99.90;;;;;;5092659;28;20217;-61
2021/06/24 06:10:45;;;;;;;12.57;8.82;;;16.90;99.90;;;;;;5093081;28;20218;-62
2021/06/24 06:13:13;;;;;;;10.05;7.25;;;16.90;99.90;;;;;;5096637;28;20283;-62
2021/06/24 06:15:44;;;;;;;9.73;8.00;;;17.00;99.90;;;;;;5096287;28;20196;-62
2021/06/24 06:18:14;;;;;;;8.95;8.05;;;17.10;99.90;;;;;;5096400;28;20210;-61
2021/06/24 06:20:43;;;;;;;9.55;7.65;;;17.20;99.90;;;;;;5096559;28;20293;-63
2021/06/24 06:23:12;;;;;;;13.43;8.50;;;17.20;99.90;;;;;;5096243;28;20295;-62
2021/06/24 06:25:40;;;;;;;10.93;8.55;;;17.10;99.90;;;;;;5096440;28;20212;-62
2021/06/24 06:28:08;;;;;;;11.18;8.50;;;17.30;99.90;;;;;;5096263;28;20204;-63
2021/06/24 06:30:36;;;;;;;9.57;8.30;;;17.50;99.90;;;;;;5095813;28;20630;-61
2021/06/24 06:33:05;;;;;;;9.15;8.00;;;17.60;99.90;;;;;;5096394;28;20204;-62
2021/06/24 06:35:33;;;;;;;11.13;8.48;;;17.80;99.90;;;;;;5096222;28;20304;-62
2021/06/24 06:38:02;;;;;;;10.48;7.85;;;17.80;99.90;;;;;;5096359;28;20264;-61
2021/06/24 06:40:31;;;;;;;9.55;8.45;;;17.90;99.90;;;;;;5095995;28;20632;-62
2021/06/24 06:42:59;;;;;;;13.13;8.40;;;17.90;99.90;;;;;;5096446;28;20208;-62
2021/06/24 06:45:29;;;;;;;10.43;8.18;;;17.80;99.90;;;;;;5095861;28;20278;-62
2021/06/24 06:47:57;;;;;;;10.65;7.88;;;17.80;99.90;;;;;;5096273;28;20204;-62
2021/06/24 06:50:27;;;;;;;8.82;7.93;;;17.80;99.90;;;;;;5095638;28;20319;-62
2021/06/24 06:52:55;;;;;;;10.35;8.10;;;17.70;99.90;;;;;;5095356;28;20683;-61
2021/06/24 06:55:28;;;;;;;8.50;7.32;;;17.80;99.90;;;;;;5095719;28;20218;-62
2021/06/24 06:57:57;;;;;;;10.32;7.75;;;17.90;99.90;;;;;;5095578;28;20632;-62
2021/06/24 07:00:25;;;;;;;9.07;7.78;;;18.10;99.90;;;;;;5095250;28;20203;-62
2021/06/24 07:02:53;;;;;;;11.05;7.72;;;18.10;99.90;;;;;;5095131;28;20689;-62
2021/06/24 07:05:21;;;;;;;7.75;7.00;;;18.10;99.90;;;;;;5095583;28;20223;-62
2021/06/24 07:07:51;;;;;;;8.27;7.25;;;18.30;99.90;;;;;;5095345;28;20728;-61
2021/06/24 07:10:19;;;;;;;8.43;7.47;;;18.60;99.90;;;;;;5093805;28;20203;-65
2021/06/24 07:12:47;;;;;;;7.78;6.95;;;18.90;99.90;;;;;;5092375;28;20196;-61
2021/06/24 07:15:16;;;;;;;7.20;6.50;;;18.90;99.90;;;;;;5092121;28;20224;-60
2021/06/24 07:17:44;;;;;;;8.00;7.22;;;19.20;99.90;;;;;;5092458;28;20202;-61
2021/06/24 07:20:13;;;;;;;9.65;6.88;;;19.40;99.90;;;;;;5092457;28;20214;-62
2021/06/24 07:22:41;;;;;;;7.10;6.03;;;19.30;99.90;;;;;;5091268;28;20704;-60
2021/06/24 07:25:13;;;;;;;7.63;6.85;;;19.40;99.90;;;;;;5082243;28;20202;-62
2021/06/24 07:27:41;;;;;;;7.82;6.70;;;19.60;99.90;;;;;;5071723;28;20189;-62
2021/06/24 07:30:09;;;;;;;6.80;6.05;;;19.60;99.90;;;;;;5071789;28;20244;-61
2021/06/24 07:32:37;;;;;;;7.30;6.28;;;19.50;99.90;;;;;;5078846;28;20292;-64
2021/06/24 07:35:06;;;;;;;8.60;7.10;;;19.60;99.90;;;;;;5090676;28;20230;-64
2021/06/24 07:37:36;;;;;;;7.32;6.30;;;19.70;99.90;;;;;;5092148;28;20211;-62
2021/06/24 07:40:05;;;;;;;7.88;7.07;;;19.50;99.90;;;;;;5091788;28;20291;-62
2021/06/24 07:42:35;;;;;;;9.35;7.40;;;19.40;99.90;;;;;;5091891;28;20199;-60
2021/06/24 07:45:04;;;;;;;6.88;6.05;;;19.00;99.90;;;;;;5091862;28;20220;-60
2021/06/24 07:47:32;;;;;;;6.82;6.22;;;18.90;99.90;;;;;;5092056;28;20295;-60
2021/06/24 07:50:00;;;;;;;10.25;7.93;;;18.70;99.90;;;;;;5091530;28;20236;-62
2021/06/24 07:52:28;;;;;;;7.68;6.47;;;18.40;99.90;;;;;;5091633;28;20211;-63
2021/06/24 07:54:56;;;;;;;9.32;6.80;;;18.50;99.90;;;;;;5091785;28;20668;-63
2021/06/24 07:57:25;;;;;;;8.82;7.40;;;18.60;99.90;;;;;;5091605;28;20200;-64
2021/06/24 07:59:54;;;;;;;8.27;6.45;;;18.60;99.90;;;;;;5091625;28;20607;-64
2021/06/24 08:02:21;;;;;;;9.43;7.15;;;18.60;99.90;;;;;;5091017;28;20235;-68
2021/06/24 08:04:49;;;;;;;8.50;7.70;;;18.60;99.90;;;;;;5091293;28;20208;-67
2021/06/24 08:07:17;;;;;;;7.95;7.10;;;18.80;99.90;;;;;;5091354;28;20551;-67
2021/06/24 08:09:47;;;;;;;12.10;7.75;;;18.80;99.90;;;;;;5091052;28;20207;-63
2021/06/24 08:12:15;;;;;;;9.57;7.60;;;18.90;99.90;;;;;;5090839;28;20204;-62
2021/06/24 08:14:43;;;;;;;8.55;6.85;;;18.80;99.90;;;;;;5090326;28;20224;-62
2021/06/24 08:17:12;;;;;;;11.00;7.90;;;18.90;99.90;;;;;;5090777;28;20202;-63
2021/06/24 08:19:40;;;;;;;7.20;6.50;;;18.90;99.90;;;;;;5091059;28;20222;-63
2021/06/24 08:22:08;;;;;;;8.35;6.53;;;18.90;99.90;;;;;;5090976;28;20199;-63
2021/06/24 08:24:36;;;;;;;8.30;7.43;;;18.90;99.90;;;;;;5088502;28;20819;-62
2021/06/24 08:27:04;;;;;;;9.00;7.55;;;19.00;99.90;;;;;;5073485;28;20620;-64
2021/06/24 08:29:32;;;;;;;9.60;8.00;;;18.90;99.90;;;;;;5073401;28;20212;-64
2021/06/24 08:32:01;;;;;;;8.95;7.80;;;18.90;99.90;;;;;;5073224;28;20630;-63
2021/06/24 08:34:30;;;;;;;12.52;7.97;;;19.10;99.90;;;;;;5072658;28;20267;-64
2021/06/24 08:36:58;;;;;;;9.73;7.47;;;19.00;99.90;;;;;;5073732;28;20202;-63
2021/06/24 08:39:26;;;;;;;10.18;8.38;;;19.10;99.90;;;;;;5073470;28;20291;-62
2021/06/24 08:41:54;;;;;;;8.32;7.53;;;19.30;99.90;;;;;;5080820;28;20197;-63
2021/06/24 08:44:22;;;;;;;9.93;7.80;;;19.20;99.90;;;;;;5093679;28;20232;-63
2021/06/24 08:46:52;;;;;;;9.38;8.10;;;19.40;99.90;;;;;;5093441;28;20596;-63
2021/06/24 08:49:24;;;;;;;8.98;8.02;;;19.40;99.90;;;;;;5093269;28;20659;-65
2021/06/24 08:51:54;;;;;;;10.23;8.23;;;19.40;99.90;;;;;;5093861;28;20260;-63
2021/06/24 08:54:22;;;;;;;11.57;7.50;;;19.30;99.90;;;;;;5093930;28;20196;-64
2021/06/24 08:56:51;;;;;;;10.52;7.90;;;19.30;99.90;;;;;;5093564;28;20525;-63
2021/06/24 08:59:19;;;;;;;8.98;7.55;;;19.40;99.90;;;;;;5093196;28;20614;-63
2021/06/24 09:01:48;;;;;;;9.38;8.18;;;19.50;99.90;;;;;;5093480;28;20302;-63
2021/06/24 09:04:16;;;;;;;8.50;7.60;;;19.40;99.90;;;;;;5093084;28;20623;-63
2021/06/24 09:06:44;;;;;;;9.80;8.25;;;19.70;99.90;;;;;;5093514;28;20204;-63
2021/06/24 09:09:24;;;;;;;10.85;8.02;;;19.80;99.90;;;;;;5093193;28;20743;-63
2021/06/24 09:12:02;;;;;;;12.05;8.52;;;20.00;99.90;;;;;;5093525;28;20275;-63
2021/06/24 09:14:41;;;;;;;9.23;7.97;;;19.90;99.90;;;;;;5093252;28;20287;-62
2021/06/24 09:17:10;;;;;;;8.43;7.55;;;20.20;99.90;;;;;;5093085;28;20280;-63
2021/06/24 09:19:40;;;;;;;8.82;7.22;;;20.40;99.90;;;;;;5093280;28;20253;-63
2021/06/24 09:22:11;;;;;;;9.02;7.28;;;20.40;99.90;;;;;;5092911;28;20694;-63
2021/06/24 09:24:44;;;;;;;9.93;7.68;;;20.40;99.90;;;;;;5092900;28;20202;-64
2021/06/24 09:27:27;;;;;;;9.50;8.50;;;20.40;99.90;;;;;;5093087;28;20184;-64
2021/06/24 09:30:05;;;;;;;11.07;8.15;;;20.50;99.90;;;;;;5092948;28;20192;-64
2021/06/24 09:32:35;;;;;;;7.93;7.15;;;20.30;99.90;;;;;;5092944;28;20188;-64
2021/06/24 09:35:04;;;;;;;9.85;7.45;;;20.20;99.90;;;;;;5093042;28;20206;-64
2021/06/24 09:38:00;;;;;;;8.00;7.20;;;20.30;99.90;;;;;;5093207;28;20556;-63
2021/06/24 09:40:41;;;;;;;11.63;8.38;;;20.50;99.90;;;;;;5092756;28;20204;-63
2021/06/24 09:43:14;;;;;;;10.40;8.18;;;20.60;99.90;;;;;;5092750;28;20688;-63
2021/06/24 09:46:00;;;;;;;10.05;8.10;;;20.60;99.90;;;;;;5092585;28;20266;-64
2021/06/24 09:48:34;;;;;;;8.43;7.03;;;20.60;99.90;;;;;;5092519;28;20192;-64
2021/06/24 09:51:09;;;;;;;8.43;7.22;;;20.90;99.90;;;;;;5092667;28;20603;-64
2021/06/24 09:53:55;;;;;;;11.38;7.85;;;20.90;99.90;;;;;;5092584;28;20602;-63
2021/06/24 09:56:27;;;;;;;8.43;7.40;;;21.00;99.90;;;;;;5092537;28;20208;-63
2021/06/24 09:58:56;;;;;;;10.05;8.43;;;21.20;99.90;;;;;;5092191;28;20181;-64
2021/06/24 10:01:30;;;;;;;8.43;7.55;;;21.20;99.90;;;;;;5092309;28;20200;-64
2021/06/24 10:03:59;;;;;;;10.48;7.78;;;21.10;99.90;;;;;;5092372;28;20191;-64
2021/06/24 10:06:28;;;;;;;8.77;7.80;;;21.10;99.90;;;;;;5092263;28;20699;-63
2021/06/24 10:08:57;;;;;;;9.50;7.57;;;21.10;99.90;;;;;;5092323;28;20222;-64
2021/06/24 10:11:27;;;;;;;8.07;7.28;;;21.30;99.90;;;;;;5092731;28;20200;-63
2021/06/24 10:13:55;;;;;;;8.10;6.50;;;21.50;99.90;;;;;;5092409;28;20184;-63
2021/06/24 10:16:26;;;;;;;7.05;6.25;;;21.50;99.90;;;;;;5092298;28;20314;-63
2021/06/24 10:18:57;;;;;;;9.05;6.95;;;21.40;99.90;;;;;;5092271;28;20188;-64
2021/06/24 10:21:26;;;;;;;9.27;7.90;;;21.30;99.90;;;;;;5092611;28;20194;-63
2021/06/24 10:23:57;;;;;;;9.27;7.57;;;21.20;99.90;;;;;;5092474;28;20202;-64
2021/06/24 10:26:27;;;;;;;9.43;7.43;;;21.30;99.90;;;;;;5092524;28;20213;-63
2021/06/24 10:29:15;;;;;;;7.57;6.82;;;21.40;99.90;;;;;;5092430;28;20200;-63
2021/06/24 10:31:45;;;;;;;9.05;8.13;;;21.40;99.90;;;;;;5092487;28;20186;-64
2021/06/24 10:34:13;;;;;;;8.80;7.43;;;21.50;99.90;;;;;;5092487;28;20200;-63
2021/06/24 10:37:01;;;;;;;10.13;7.65;;;21.50;99.90;;;;;;5092170;28;20260;-65
2021/06/24 10:39:35;;;;;;;8.60;7.43;;;21.50;99.90;;;;;;5092175;28;20282;-64
2021/06/24 10:42:06;;;;;;;9.45;7.15;;;21.90;99.90;;;;;;5092170;28;20710;-63
2021/06/24 10:44:53;;;;;;;6.60;6.00;;;22.20;99.90;;;;;;5091863;28;20185;-64
2021/06/24 10:47:33;;;;;;;7.22;6.40;;;22.30;99.90;;;;;;5092233;28;20212;-63
2021/06/24 10:50:36;;;;;;;9.15;7.00;;;22.70;99.90;;;;;;5091663;28;20238;-63
2021/06/24 10:53:36;;;;;;;8.48;7.03;;;23.00;99.90;;;;;;5091942;28;20207;-63
2021/06/24 10:56:35;;;;;;;9.57;8.55;;;23.00;99.90;;;;;;5092257;28;20238;-64
2021/06/24 10:59:34;;;;;;;9.40;7.72;;;23.00;99.90;;;;;;5095593;28;20705;-63
2021/06/24 11:02:21;;;;;;;8.98;8.05;;;22.80;99.90;;;;;;5095750;28;20271;-62
2021/06/24 11:04:51;;;;;;;8.10;7.30;;;23.10;99.90;;;;;;5096007;28;20187;-64
2021/06/24 11:07:36;;;;;;;8.63;7.57;;;23.00;99.90;;;;;;5095503;28;20291;-63
2021/06/24 11:10:16;;;;;;;10.43;8.05;;;23.50;99.90;;;;;;5095924;28;20620;-63
2021/06/24 11:12:55;;;;;;;9.65;7.47;;;23.40;99.90;;;;;;5095489;28;20285;-63
2021/06/24 11:15:58;;;;;;;14.13;9.10;;;23.30;99.90;;;;;;5095269;28;20200;-63
2021/06/24 11:18:46;;;;;;;7.22;6.47;;;23.30;99.90;;;;;;5062203;28;20205;-63
2021/06/24 11:21:19;;;;;;;8.30;7.35;;;23.70;99.90;;;;;;5095697;28;20264;-64
2021/06/24 11:23:49;;;;;;;10.30;8.38;;;23.80;99.90;;;;;;5095136;28;20184;-64
2021/06/24 11:26:19;;;;;;;11.18;8.00;;;23.90;99.90;;;;;;5095247;28;20565;-64
2021/06/24 11:28:50;;;;;;;9.02;7.20;;;23.90;99.90;;;;;;5095453;28;20184;-63
2021/06/24 11:31:23;;;;;;;8.98;7.15;;;24.10;99.90;;;;;;5094899;28;20571;-64
2021/06/24 11:34:02;;;;;;;6.95;6.32;;;24.30;99.90;;;;;;5095361;28;20586;-64
2021/06/24 11:36:30;;;;;;;8.27;6.70;;;24.10;99.90;;;;;;5095255;28;20203;-65
2021/06/24 11:38:57;;;;;;;7.00;6.30;;;24.10;99.90;;;;;;5095204;28;20283;-63
2021/06/24 11:41:25;;;;;;;6.55;5.95;;;24.10;99.90;;;;;;5095130;28;20200;-62
2021/06/24 11:43:58;;;;;;;7.07;5.88;;;24.10;99.90;;;;;;5095069;28;20200;-63
2021/06/24 11:46:29;;;;;;;6.93;5.82;;;24.30;99.90;;;;;;5095022;28;20181;-64
2021/06/24 11:49:07;;;;;;;7.00;5.20;;;24.30;99.90;;;;;;5094817;28;20231;-64
2021/06/24 12:03:06;;;;;;;8.32;5.38;;;24.20;99.90;;;;;;5094634;28;20219;-63
2021/06/24 12:05:37;;;;;;;6.72;5.07;;;24.10;99.90;;;;;;5094732;28;20187;-63
2021/06/24 12:08:05;;;;;;;5.25;4.75;;;23.90;99.90;;;;;;5094549;28;20185;-63
2021/06/24 12:10:33;;;;;;;5.72;5.22;;;23.70;99.90;;;;;;5094503;28;20238;-63
2021/06/24 12:13:01;;;;;;;6.50;5.40;;;23.70;99.90;;;;;;5094280;28;20200;-64
2021/06/24 12:15:29;;;;;;;5.78;4.97;;;23.60;99.90;;;;;;5094486;28;20215;-65
2021/06/24 12:17:59;;;;;;;6.40;5.43;;;23.90;99.90;;;;;;5094343;28;20269;-63
2021/06/24 12:20:27;;;;;;;5.60;4.88;;;23.90;99.90;;;;;;5094064;28;20206;-62
2021/06/24 12:23:15;;;;;;;9.00;5.07;;;23.80;99.90;;;;;;5094038;28;20207;-63
2021/06/24 12:25:45;;;;;;;5.47;5.03;;;23.60;99.90;;;;;;5094304;28;20206;-62
2021/06/24 12:28:14;;;;;;;5.70;4.50;;;23.60;99.90;;;;;;5094238;28;20195;-63
2021/06/24 12:30:44;;;;;;;4.97;4.32;;;23.90;99.90;;;;;;5094174;28;20204;-63
2021/06/24 12:33:14;;;;;;;4.32;3.90;;;23.90;99.90;;;;;;5093932;28;20567;-63
2021/06/24 12:35:45;;;;;;;5.07;4.57;;;23.90;99.90;;;;;;5094240;28;20268;-65
2021/06/24 12:38:15;;;;;;;5.32;4.45;;;24.20;99.90;;;;;;5093951;28;20296;-64
2021/06/24 12:40:47;;;;;;;5.93;4.70;;;23.90;99.90;;;;;;5093697;28;20645;-61
2021/06/24 12:43:18;;;;;;;6.20;4.97;;;23.90;99.90;;;;;;5093923;28;20198;-62
2021/06/24 12:45:49;;;;;;;4.32;3.95;;;23.60;99.90;;;;;;5093442;28;20188;-62
2021/06/24 12:48:30;;;;;;;6.55;4.35;;;23.40;99.90;;;;;;5093778;28;20181;-62
2021/06/24 12:50:59;;;;;;;6.85;5.45;;;23.30;99.90;;;;;;5093780;28;20184;-61
2021/06/24 12:53:32;;;;;;;5.95;4.40;;;23.20;99.90;;;;;;5093370;28;20735;-61
2021/06/24 12:56:01;;;;;;;4.63;4.13;;;23.20;99.90;;;;;;5093464;28;20184;-63
2021/06/24 12:58:47;;;;;;;4.82;4.43;;;23.00;99.90;;;;;;5093167;28;20794;-62
2021/06/24 13:01:16;;;;;;;6.53;4.65;;;22.70;99.90;;;;;;5093360;28;20219;-62
2021/06/24 13:03:50;;;;;;;5.20;3.83;;;22.50;99.90;;;;;;5094069;28;20194;-62
2021/06/24 13:06:23;;;;;;;4.90;4.40;;;22.40;99.90;;;;;;5093605;28;20187;-61
2021/06/24 13:08:58;;;;;;;4.90;4.45;;;22.40;99.90;;;;;;5093488;28;20792;-62
2021/06/24 13:11:27;;;;;;;6.40;5.07;;;22.40;99.90;;;;;;5093447;28;20184;-62
2021/06/24 13:13:58;;;;;;;4.45;4.05;;;22.50;99.90;;;;;;5093083;28;20206;-60